sensor_id;sensor_type;location;lat;lon;timestamp;temperature;humidity
6256;DHT22;3161;48.794;9.784;2022-09-03T00:00:57;16.70;95.20
6256;DHT22;3161;48.794;9.784;2022-09-03T00:03:42;16.70;95.70
6256;DHT22;3161;48.794;9.784;2022-09-03T00:06:24;16.70;96.10
6256;DHT22;3161;48.794;9.784;2022-09-03T00:08:56;16.60;96.20
6256;DHT22;3161;48.794;9.784;2022-09-03T00:11:27;16.60;95.70
6256;DHT22;3161;48.794;9.784;2022-09-03T00:14:15;16.60;96.00
6256;DHT22;3161;48.794;9.784;2022-09-03T00:17:06;16.60;96.00
6256;DHT22;3161;48.794;9.784;2022-09-03T00:19:36;16.60;96.40
6256;DHT22;3161;48.794;9.784;2022-09-03T00:22:13;16.50;97.10
6256;DHT22;3161;48.794;9.784;2022-09-03T00:24:41;16.50;97.00
6256;DHT22;3161;48.794;9.784;2022-09-03T00:27:25;16.50;97.60
6256;DHT22;3161;48.794;9.784;2022-09-03T00:29:54;16.50;97.20
6256;DHT22;3161;48.794;9.784;2022-09-03T00:32:28;16.50;97.40
6256;DHT22;3161;48.794;9.784;2022-09-03T00:35:01;16.50;97.70
6256;DHT22;3161;48.794;9.784;2022-09-03T00:37:29;16.50;97.50
6256;DHT22;3161;48.794;9.784;2022-09-03T00:39:58;16.50;97.40
6256;DHT22;3161;48.794;9.784;2022-09-03T00:42:39;16.50;97.00
6256;DHT22;3161;48.794;9.784;2022-09-03T00:48:20;16.60;97.90
6256;DHT22;3161;48.794;9.784;2022-09-03T00:56:36;16.60;98.20
6256;DHT22;3161;48.794;9.784;2022-09-03T01:02:00;16.60;98.80
6256;DHT22;3161;48.794;9.784;2022-09-03T01:04:44;16.60;98.60
6256;DHT22;3161;48.794;9.784;2022-09-03T01:15:43;16.70;98.50
6256;DHT22;3161;48.794;9.784;2022-09-03T01:18:30;16.70;99.30
6256;DHT22;3161;48.794;9.784;2022-09-03T01:29:28;16.80;99.40
6256;DHT22;3161;48.794;9.784;2022-09-03T01:32:03;16.80;99.50
6256;DHT22;3161;48.794;9.784;2022-09-03T01:34:41;16.80;99.50
6256;DHT22;3161;48.794;9.784;2022-09-03T01:37:24;16.80;99.60
6256;DHT22;3161;48.794;9.784;2022-09-03T01:42:49;16.80;99.40
6256;DHT22;3161;48.794;9.784;2022-09-03T01:45:18;16.90;99.50
6256;DHT22;3161;48.794;9.784;2022-09-03T01:50:47;16.90;99.30
6256;DHT22;3161;48.794;9.784;2022-09-03T01:53:44;17.00;99.60
6256;DHT22;3161;48.794;9.784;2022-09-03T01:58:48;17.00;99.40
6256;DHT22;3161;48.794;9.784;2022-09-03T02:01:21;17.00;99.80
6256;DHT22;3161;48.794;9.784;2022-09-03T02:03:46;17.10;99.80
6256;DHT22;3161;48.794;9.784;2022-09-03T02:06:17;17.10;99.60
6256;DHT22;3161;48.794;9.784;2022-09-03T02:08:46;17.10;99.90
6256;DHT22;3161;48.794;9.784;2022-09-03T02:11:13;17.10;99.90
6256;DHT22;3161;48.794;9.784;2022-09-03T02:13:44;17.20;99.90
6256;DHT22;3161;48.794;9.784;2022-09-03T02:16:22;17.20;99.80
6256;DHT22;3161;48.794;9.784;2022-09-03T02:19:04;17.20;99.90
6256;DHT22;3161;48.794;9.784;2022-09-03T02:21:32;17.20;99.90
6256;DHT22;3161;48.794;9.784;2022-09-03T02:23:58;17.30;99.90
6256;DHT22;3161;48.794;9.784;2022-09-03T02:26:26;17.30;99.90
6256;DHT22;3161;48.794;9.784;2022-09-03T02:28:55;17.30;99.90
6256;DHT22;3161;48.794;9.784;2022-09-03T02:31:44;17.30;99.90
6256;DHT22;3161;48.794;9.784;2022-09-03T02:34:11;17.30;99.90
6256;DHT22;3161;48.794;9.784;2022-09-03T02:36:41;17.40;99.90
6256;DHT22;3161;48.794;9.784;2022-09-03T02:39:12;17.40;99.70
6256;DHT22;3161;48.794;9.784;2022-09-03T02:41:40;17.40;99.50
6256;DHT22;3161;48.794;9.784;2022-09-03T02:44:13;17.30;99.90
6256;DHT22;3161;48.794;9.784;2022-09-03T02:46:47;17.30;99.90
6256;DHT22;3161;48.794;9.784;2022-09-03T02:49:15;17.20;99.90
6256;DHT22;3161;48.794;9.784;2022-09-03T02:51:43;17.20;99.90
6256;DHT22;3161;48.794;9.784;2022-09-03T02:54:11;17.30;99.90
6256;DHT22;3161;48.794;9.784;2022-09-03T02:56:40;17.20;99.90
6256;DHT22;3161;48.794;9.784;2022-09-03T02:59:09;17.20;99.90
6256;DHT22;3161;48.794;9.784;2022-09-03T03:01:36;17.20;99.90
6256;DHT22;3161;48.794;9.784;2022-09-03T03:04:04;17.20;99.90
6256;DHT22;3161;48.794;9.784;2022-09-03T03:06:31;17.20;99.90
6256;DHT22;3161;48.794;9.784;2022-09-03T03:08:59;17.20;99.90
6256;DHT22;3161;48.794;9.784;2022-09-03T03:11:27;17.20;99.90
6256;DHT22;3161;48.794;9.784;2022-09-03T03:13:54;17.20;99.90
6256;DHT22;3161;48.794;9.784;2022-09-03T03:16:22;17.20;99.90
6256;DHT22;3161;48.794;9.784;2022-09-03T03:18:50;17.30;99.90
6256;DHT22;3161;48.794;9.784;2022-09-03T03:21:18;17.20;99.90
6256;DHT22;3161;48.794;9.784;2022-09-03T03:23:46;17.20;99.90
6256;DHT22;3161;48.794;9.784;2022-09-03T03:26:15;17.20;99.90
6256;DHT22;3161;48.794;9.784;2022-09-03T03:28:47;17.20;99.90
6256;DHT22;3161;48.794;9.784;2022-09-03T03:31:18;17.20;99.90
6256;DHT22;3161;48.794;9.784;2022-09-03T03:33:53;17.10;99.90
6256;DHT22;3161;48.794;9.784;2022-09-03T03:36:22;17.00;99.90
6256;DHT22;3161;48.794;9.784;2022-09-03T03:38:54;17.00;99.90
6256;DHT22;3161;48.794;9.784;2022-09-03T03:41:27;17.00;99.90
6256;DHT22;3161;48.794;9.784;2022-09-03T03:43:57;17.00;99.90
6256;DHT22;3161;48.794;9.784;2022-09-03T03:46:38;17.00;99.90
6256;DHT22;3161;48.794;9.784;2022-09-03T03:49:02;17.00;99.90
6256;DHT22;3161;48.794;9.784;2022-09-03T03:51:32;17.00;99.90
6256;DHT22;3161;48.794;9.784;2022-09-03T03:54:00;17.00;99.90
6256;DHT22;3161;48.794;9.784;2022-09-03T03:56:28;17.00;99.90
6256;DHT22;3161;48.794;9.784;2022-09-03T03:58:55;17.00;99.90
6256;DHT22;3161;48.794;9.784;2022-09-03T04:01:26;16.90;99.90
6256;DHT22;3161;48.794;9.784;2022-09-03T04:03:57;17.00;99.90
6256;DHT22;3161;48.794;9.784;2022-09-03T04:06:26;16.90;99.90
6256;DHT22;3161;48.794;9.784;2022-09-03T04:08:54;16.90;99.90
6256;DHT22;3161;48.794;9.784;2022-09-03T04:11:23;16.80;99.90
6256;DHT22;3161;48.794;9.784;2022-09-03T04:13:51;16.80;99.90
6256;DHT22;3161;48.794;9.784;2022-09-03T04:16:21;16.80;99.90
6256;DHT22;3161;48.794;9.784;2022-09-03T04:18:50;16.80;99.90
6256;DHT22;3161;48.794;9.784;2022-09-03T04:21:28;16.70;99.90
6256;DHT22;3161;48.794;9.784;2022-09-03T04:23:52;16.70;99.90
6256;DHT22;3161;48.794;9.784;2022-09-03T04:26:28;16.70;99.90
6256;DHT22;3161;48.794;9.784;2022-09-03T04:28:51;16.60;99.90
6256;DHT22;3161;48.794;9.784;2022-09-03T04:31:20;16.70;99.90
6256;DHT22;3161;48.794;9.784;2022-09-03T04:33:48;16.60;99.90
6256;DHT22;3161;48.794;9.784;2022-09-03T04:36:25;16.70;99.90
6256;DHT22;3161;48.794;9.784;2022-09-03T04:38:55;16.60;99.90
6256;DHT22;3161;48.794;9.784;2022-09-03T04:41:28;16.60;99.90
6256;DHT22;3161;48.794;9.784;2022-09-03T04:43:57;16.60;99.90
6256;DHT22;3161;48.794;9.784;2022-09-03T04:46:27;16.60;99.90
6256;DHT22;3161;48.794;9.784;2022-09-03T04:48:56;16.60;99.90
6256;DHT22;3161;48.794;9.784;2022-09-03T04:51:28;16.60;99.90
6256;DHT22;3161;48.794;9.784;2022-09-03T04:54:00;16.60;99.90
6256;DHT22;3161;48.794;9.784;2022-09-03T04:56:30;16.60;99.90
6256;DHT22;3161;48.794;9.784;2022-09-03T04:59:00;16.60;99.90
6256;DHT22;3161;48.794;9.784;2022-09-03T05:01:30;16.60;99.90
6256;DHT22;3161;48.794;9.784;2022-09-03T05:03:58;16.60;99.90
6256;DHT22;3161;48.794;9.784;2022-09-03T05:06:27;16.60;99.90
6256;DHT22;3161;48.794;9.784;2022-09-03T05:08:56;16.70;99.90
6256;DHT22;3161;48.794;9.784;2022-09-03T05:11:25;16.70;99.90
6256;DHT22;3161;48.794;9.784;2022-09-03T05:13:55;16.70;99.90
6256;DHT22;3161;48.794;9.784;2022-09-03T05:16:24;16.70;99.90
6256;DHT22;3161;48.794;9.784;2022-09-03T05:18:53;16.80;99.90
6256;DHT22;3161;48.794;9.784;2022-09-03T05:21:21;16.80;99.90
6256;DHT22;3161;48.794;9.784;2022-09-03T05:23:51;16.90;99.90
6256;DHT22;3161;48.794;9.784;2022-09-03T05:26:25;16.90;99.90
6256;DHT22;3161;48.794;9.784;2022-09-03T05:28:54;16.90;99.90
6256;DHT22;3161;48.794;9.784;2022-09-03T05:31:24;16.90;99.90
6256;DHT22;3161;48.794;9.784;2022-09-03T05:33:55;17.00;99.90
6256;DHT22;3161;48.794;9.784;2022-09-03T05:36:27;17.00;99.90
6256;DHT22;3161;48.794;9.784;2022-09-03T05:38:55;17.00;99.90
6256;DHT22;3161;48.794;9.784;2022-09-03T05:41:25;17.10;99.90
6256;DHT22;3161;48.794;9.784;2022-09-03T05:43:54;17.10;99.90
6256;DHT22;3161;48.794;9.784;2022-09-03T05:46:31;17.10;99.90
6256;DHT22;3161;48.794;9.784;2022-09-03T05:49:01;17.10;99.90
6256;DHT22;3161;48.794;9.784;2022-09-03T05:51:29;17.20;99.90
6256;DHT22;3161;48.794;9.784;2022-09-03T05:53:57;17.20;99.90
6256;DHT22;3161;48.794;9.784;2022-09-03T05:56:27;17.30;99.90
6256;DHT22;3161;48.794;9.784;2022-09-03T05:58:58;17.30;99.90
6256;DHT22;3161;48.794;9.784;2022-09-03T06:01:32;17.40;99.90
6256;DHT22;3161;48.794;9.784;2022-09-03T06:04:02;17.40;99.90
6256;DHT22;3161;48.794;9.784;2022-09-03T06:06:32;17.40;99.90
6256;DHT22;3161;48.794;9.784;2022-09-03T06:09:02;17.50;99.90
6256;DHT22;3161;48.794;9.784;2022-09-03T06:11:31;17.50;99.90
6256;DHT22;3161;48.794;9.784;2022-09-03T06:14:02;17.50;99.90
6256;DHT22;3161;48.794;9.784;2022-09-03T06:16:34;17.60;99.90
6256;DHT22;3161;48.794;9.784;2022-09-03T06:19:03;17.60;99.90
6256;DHT22;3161;48.794;9.784;2022-09-03T06:21:33;17.60;99.90
6256;DHT22;3161;48.794;9.784;2022-09-03T06:24:02;17.70;99.90
6256;DHT22;3161;48.794;9.784;2022-09-03T06:26:30;17.70;99.90
6256;DHT22;3161;48.794;9.784;2022-09-03T06:28:57;17.80;99.90
6256;DHT22;3161;48.794;9.784;2022-09-03T06:31:25;17.80;99.90
6256;DHT22;3161;48.794;9.784;2022-09-03T06:33:53;17.80;99.90
6256;DHT22;3161;48.794;9.784;2022-09-03T06:36:23;17.80;99.90
6256;DHT22;3161;48.794;9.784;2022-09-03T06:38:54;17.80;99.90
6256;DHT22;3161;48.794;9.784;2022-09-03T06:41:24;17.80;99.90
6256;DHT22;3161;48.794;9.784;2022-09-03T06:43:57;17.90;99.90
6256;DHT22;3161;48.794;9.784;2022-09-03T06:46:27;17.80;99.90
6256;DHT22;3161;48.794;9.784;2022-09-03T06:48:54;17.90;99.90
6256;DHT22;3161;48.794;9.784;2022-09-03T06:51:24;17.80;99.90
6256;DHT22;3161;48.794;9.784;2022-09-03T06:53:54;17.90;99.90
6256;DHT22;3161;48.794;9.784;2022-09-03T06:56:24;17.90;99.90
6256;DHT22;3161;48.794;9.784;2022-09-03T06:58:56;18.00;99.90
6256;DHT22;3161;48.794;9.784;2022-09-03T07:01:26;18.00;99.90
6256;DHT22;3161;48.794;9.784;2022-09-03T07:03:57;18.10;99.90
6256;DHT22;3161;48.794;9.784;2022-09-03T07:06:28;18.10;99.90
6256;DHT22;3161;48.794;9.784;2022-09-03T07:08:57;18.20;99.90
6256;DHT22;3161;48.794;9.784;2022-09-03T07:11:27;18.20;99.90
6256;DHT22;3161;48.794;9.784;2022-09-03T07:13:57;18.30;99.90
6256;DHT22;3161;48.794;9.784;2022-09-03T07:16:32;18.40;99.90
6256;DHT22;3161;48.794;9.784;2022-09-03T07:18:56;18.50;99.90
6256;DHT22;3161;48.794;9.784;2022-09-03T07:21:26;18.60;99.90
6256;DHT22;3161;48.794;9.784;2022-09-03T07:23:55;18.70;99.90
6256;DHT22;3161;48.794;9.784;2022-09-03T07:26:26;18.90;99.90
6256;DHT22;3161;48.794;9.784;2022-09-03T07:28:54;19.10;99.90
6256;DHT22;3161;48.794;9.784;2022-09-03T07:31:27;19.40;99.90
6256;DHT22;3161;48.794;9.784;2022-09-03T07:33:57;19.50;99.90
6256;DHT22;3161;48.794;9.784;2022-09-03T07:36:27;19.60;99.90
6256;DHT22;3161;48.794;9.784;2022-09-03T07:38:56;19.80;99.90
6256;DHT22;3161;48.794;9.784;2022-09-03T07:41:26;19.90;99.90
6256;DHT22;3161;48.794;9.784;2022-09-03T07:43:54;20.00;99.90
6256;DHT22;3161;48.794;9.784;2022-09-03T07:46:24;20.00;99.90
6256;DHT22;3161;48.794;9.784;2022-09-03T07:48:54;20.10;99.90
6256;DHT22;3161;48.794;9.784;2022-09-03T07:51:24;20.20;99.90
6256;DHT22;3161;48.794;9.784;2022-09-03T07:53:58;20.50;99.90
6256;DHT22;3161;48.794;9.784;2022-09-03T07:56:27;20.70;99.90
6256;DHT22;3161;48.794;9.784;2022-09-03T07:58:58;20.80;99.90
6256;DHT22;3161;48.794;9.784;2022-09-03T08:01:27;20.80;99.90
6256;DHT22;3161;48.794;9.784;2022-09-03T08:03:57;20.80;99.90
6256;DHT22;3161;48.794;9.784;2022-09-03T08:06:26;20.80;99.90
6256;DHT22;3161;48.794;9.784;2022-09-03T08:09:01;20.80;99.90
6256;DHT22;3161;48.794;9.784;2022-09-03T08:11:26;20.90;99.90
6256;DHT22;3161;48.794;9.784;2022-09-03T08:13:59;20.90;99.90
6256;DHT22;3161;48.794;9.784;2022-09-03T08:16:30;20.90;99.90
6256;DHT22;3161;48.794;9.784;2022-09-03T08:18:58;20.90;99.90
6256;DHT22;3161;48.794;9.784;2022-09-03T08:21:26;20.90;99.90
6256;DHT22;3161;48.794;9.784;2022-09-03T08:23:55;20.90;99.90
6256;DHT22;3161;48.794;9.784;2022-09-03T08:26:32;20.90;99.90
6256;DHT22;3161;48.794;9.784;2022-09-03T08:29:01;20.90;99.90
6256;DHT22;3161;48.794;9.784;2022-09-03T08:31:29;20.90;99.90
6256;DHT22;3161;48.794;9.784;2022-09-03T08:33:59;20.90;99.90
6256;DHT22;3161;48.794;9.784;2022-09-03T08:36:29;20.90;99.90
6256;DHT22;3161;48.794;9.784;2022-09-03T08:38:59;20.90;99.90
6256;DHT22;3161;48.794;9.784;2022-09-03T08:42:04;20.90;99.90
6256;DHT22;3161;48.794;9.784;2022-09-03T08:47:13;20.90;99.90
6256;DHT22;3161;48.794;9.784;2022-09-03T08:52:37;20.90;99.90
6256;DHT22;3161;48.794;9.784;2022-09-03T08:55:19;20.90;99.90
6256;DHT22;3161;48.794;9.784;2022-09-03T08:57:48;20.90;99.90
6256;DHT22;3161;48.794;9.784;2022-09-03T09:00:17;21.00;99.90
6256;DHT22;3161;48.794;9.784;2022-09-03T09:03:06;21.10;99.90
6256;DHT22;3161;48.794;9.784;2022-09-03T09:05:46;21.10;99.90
6256;DHT22;3161;48.794;9.784;2022-09-03T09:08:19;21.20;99.90
6256;DHT22;3161;48.794;9.784;2022-09-03T09:10:48;21.20;99.90
6256;DHT22;3161;48.794;9.784;2022-09-03T09:13:37;21.20;99.90
6256;DHT22;3161;48.794;9.784;2022-09-03T09:21:58;21.40;99.90
6256;DHT22;3161;48.794;9.784;2022-09-03T09:24:27;21.40;99.90
6256;DHT22;3161;48.794;9.784;2022-09-03T09:27:01;21.50;99.90
6256;DHT22;3161;48.794;9.784;2022-09-03T09:29:31;21.50;99.90
6256;DHT22;3161;48.794;9.784;2022-09-03T09:31:59;21.60;99.90
6256;DHT22;3161;48.794;9.784;2022-09-03T09:34:27;21.70;99.90
6256;DHT22;3161;48.794;9.784;2022-09-03T09:36:55;21.70;99.90
6256;DHT22;3161;48.794;9.784;2022-09-03T09:39:23;21.80;99.90
6256;DHT22;3161;48.794;9.784;2022-09-03T09:42:08;21.90;99.90
6256;DHT22;3161;48.794;9.784;2022-09-03T09:44:40;22.10;99.90
6256;DHT22;3161;48.794;9.784;2022-09-03T09:47:25;22.20;99.90
6256;DHT22;3161;48.794;9.784;2022-09-03T09:49:58;22.40;99.90
6256;DHT22;3161;48.794;9.784;2022-09-03T09:52:28;22.50;99.90
6256;DHT22;3161;48.794;9.784;2022-09-03T09:55:18;22.70;99.90
6256;DHT22;3161;48.794;9.784;2022-09-03T09:57:46;22.80;99.90
6256;DHT22;3161;48.794;9.784;2022-09-03T10:00:16;23.00;99.90
6256;DHT22;3161;48.794;9.784;2022-09-03T10:02:53;23.10;99.90
6256;DHT22;3161;48.794;9.784;2022-09-03T10:05:23;23.20;99.90
6256;DHT22;3161;48.794;9.784;2022-09-03T10:10:28;23.50;99.90
6256;DHT22;3161;48.794;9.784;2022-09-03T10:13:00;23.70;99.90
6256;DHT22;3161;48.794;9.784;2022-09-03T10:16:09;23.90;99.90
6256;DHT22;3161;48.794;9.784;2022-09-03T10:18:43;24.00;99.90
6256;DHT22;3161;48.794;9.784;2022-09-03T10:21:14;24.10;99.90
6256;DHT22;3161;48.794;9.784;2022-09-03T10:23:57;24.20;99.90
6256;DHT22;3161;48.794;9.784;2022-09-03T10:26:24;24.30;99.90
6256;DHT22;3161;48.794;9.784;2022-09-03T10:29:02;24.40;99.90
6256;DHT22;3161;48.794;9.784;2022-09-03T10:31:41;24.50;99.90
6256;DHT22;3161;48.794;9.784;2022-09-03T10:34:26;24.60;99.40
6256;DHT22;3161;48.794;9.784;2022-09-03T10:37:13;24.70;99.40
6256;DHT22;3161;48.794;9.784;2022-09-03T10:45:16;25.20;98.60
6256;DHT22;3161;48.794;9.784;2022-09-03T10:48:02;25.30;98.30
6256;DHT22;3161;48.794;9.784;2022-09-03T10:50:43;25.50;96.10
6256;DHT22;3161;48.794;9.784;2022-09-03T10:56:14;25.70;95.60
6256;DHT22;3161;48.794;9.784;2022-09-03T11:01:46;26.00;94.10
6256;DHT22;3161;48.794;9.784;2022-09-03T11:07:03;26.10;93.90
6256;DHT22;3161;48.794;9.784;2022-09-03T11:09:47;26.00;93.60
6256;DHT22;3161;48.794;9.784;2022-09-03T11:12:28;26.00;94.60
6256;DHT22;3161;48.794;9.784;2022-09-03T11:17:48;26.00;93.70
6256;DHT22;3161;48.794;9.784;2022-09-03T11:20:21;26.10;94.40
6256;DHT22;3161;48.794;9.784;2022-09-03T11:22:52;26.20;93.30
6256;DHT22;3161;48.794;9.784;2022-09-03T11:25:29;26.20;92.70
6256;DHT22;3161;48.794;9.784;2022-09-03T11:28:01;26.20;93.50
6256;DHT22;3161;48.794;9.784;2022-09-03T11:30:34;26.10;93.40
6256;DHT22;3161;48.794;9.784;2022-09-03T11:33:05;26.10;93.50
6256;DHT22;3161;48.794;9.784;2022-09-03T11:38:07;26.00;93.50
6256;DHT22;3161;48.794;9.784;2022-09-03T11:40:36;26.00;93.60
6256;DHT22;3161;48.794;9.784;2022-09-03T11:43:12;26.00;93.80
6256;DHT22;3161;48.794;9.784;2022-09-03T11:45:41;25.90;93.80
6256;DHT22;3161;48.794;9.784;2022-09-03T11:48:32;25.80;93.60
6256;DHT22;3161;48.794;9.784;2022-09-03T11:50:55;25.80;93.40
6256;DHT22;3161;48.794;9.784;2022-09-03T11:53:25;25.80;93.30
6256;DHT22;3161;48.794;9.784;2022-09-03T11:58:38;25.70;93.80
6256;DHT22;3161;48.794;9.784;2022-09-03T12:01:09;25.60;94.30
6256;DHT22;3161;48.794;9.784;2022-09-03T12:06:48;25.50;93.90
6256;DHT22;3161;48.794;9.784;2022-09-03T12:18:03;25.00;94.00
6256;DHT22;3161;48.794;9.784;2022-09-03T12:20:59;24.90;94.80
6256;DHT22;3161;48.794;9.784;2022-09-03T12:23:38;24.80;95.10
6256;DHT22;3161;48.794;9.784;2022-09-03T12:26:06;24.60;95.30
6256;DHT22;3161;48.794;9.784;2022-09-03T12:28:36;24.60;95.10
6256;DHT22;3161;48.794;9.784;2022-09-03T12:31:13;24.50;95.40
6256;DHT22;3161;48.794;9.784;2022-09-03T12:33:42;24.40;96.20
6256;DHT22;3161;48.794;9.784;2022-09-03T12:36:12;24.20;96.20
6256;DHT22;3161;48.794;9.784;2022-09-03T12:38:40;24.20;96.60
6256;DHT22;3161;48.794;9.784;2022-09-03T12:41:28;24.10;96.30
6256;DHT22;3161;48.794;9.784;2022-09-03T12:43:58;23.90;96.50
6256;DHT22;3161;48.794;9.784;2022-09-03T12:46:28;23.90;97.00
6256;DHT22;3161;48.794;9.784;2022-09-03T12:49:01;23.80;97.60
6256;DHT22;3161;48.794;9.784;2022-09-03T12:51:38;23.70;97.90
6256;DHT22;3161;48.794;9.784;2022-09-03T12:54:09;23.00;98.10
6256;DHT22;3161;48.794;9.784;2022-09-03T12:56:46;23.50;98.90
6256;DHT22;3161;48.794;9.784;2022-09-03T12:59:16;23.50;99.60
6256;DHT22;3161;48.794;9.784;2022-09-03T13:01:44;23.40;99.90
6256;DHT22;3161;48.794;9.784;2022-09-03T13:04:22;23.30;99.90
6256;DHT22;3161;48.794;9.784;2022-09-03T13:09:34;23.00;99.90
6256;DHT22;3161;48.794;9.784;2022-09-03T13:12:03;22.20;99.90
6256;DHT22;3161;48.794;9.784;2022-09-03T13:14:45;21.30;99.90
6256;DHT22;3161;48.794;9.784;2022-09-03T13:17:44;20.60;99.90
6256;DHT22;3161;48.794;9.784;2022-09-03T13:20:19;20.10;99.90
6256;DHT22;3161;48.794;9.784;2022-09-03T13:22:56;19.70;99.90
6256;DHT22;3161;48.794;9.784;2022-09-03T13:25:41;19.30;99.90
6256;DHT22;3161;48.794;9.784;2022-09-03T13:31:42;19.00;99.90
6256;DHT22;3161;48.794;9.784;2022-09-03T13:33:27;18.90;99.90
6256;DHT22;3161;48.794;9.784;2022-09-03T13:35:59;18.80;99.90
6256;DHT22;3161;48.794;9.784;2022-09-03T13:38:38;18.80;99.90
6256;DHT22;3161;48.794;9.784;2022-09-03T13:44:00;18.70;99.90
6256;DHT22;3161;48.794;9.784;2022-09-03T13:46:34;18.60;99.90
6256;DHT22;3161;48.794;9.784;2022-09-03T13:49:32;18.50;99.90
6256;DHT22;3161;48.794;9.784;2022-09-03T13:55:07;18.50;99.90
6256;DHT22;3161;48.794;9.784;2022-09-03T13:57:49;18.50;99.90
6256;DHT22;3161;48.794;9.784;2022-09-03T14:00:30;18.50;99.90
6256;DHT22;3161;48.794;9.784;2022-09-03T14:03:09;18.50;99.90
6256;DHT22;3161;48.794;9.784;2022-09-03T14:17:14;18.70;99.90
6256;DHT22;3161;48.794;9.784;2022-09-03T14:25:22;18.80;99.90
6256;DHT22;3161;48.794;9.784;2022-09-03T14:27:46;18.90;99.90
6256;DHT22;3161;48.794;9.784;2022-09-03T14:30:40;19.00;99.90
6256;DHT22;3161;48.794;9.784;2022-09-03T14:36:05;19.60;99.90
6256;DHT22;3161;48.794;9.784;2022-09-03T14:38:45;20.40;99.90
6256;DHT22;3161;48.794;9.784;2022-09-03T14:44:18;24.40;99.90
6256;DHT22;3161;48.794;9.784;2022-09-03T14:56:02;24.20;99.90
6256;DHT22;3161;48.794;9.784;2022-09-03T15:06:40;22.50;99.90
6256;DHT22;3161;48.794;9.784;2022-09-03T15:12:02;22.20;99.90
6256;DHT22;3161;48.794;9.784;2022-09-03T15:14:48;22.20;99.90
6256;DHT22;3161;48.794;9.784;2022-09-03T15:20:21;22.20;99.90
6256;DHT22;3161;48.794;9.784;2022-09-03T15:23:20;22.20;99.90
6256;DHT22;3161;48.794;9.784;2022-09-03T15:26:11;22.00;99.90
6256;DHT22;3161;48.794;9.784;2022-09-03T15:34:39;21.60;99.90
6256;DHT22;3161;48.794;9.784;2022-09-03T15:37:13;21.50;99.90
6256;DHT22;3161;48.794;9.784;2022-09-03T15:39:39;21.40;99.90
6256;DHT22;3161;48.794;9.784;2022-09-03T15:42:13;21.30;99.90
6256;DHT22;3161;48.794;9.784;2022-09-03T15:44:49;21.20;99.90
6256;DHT22;3161;48.794;9.784;2022-09-03T15:47:37;21.10;99.90
6256;DHT22;3161;48.794;9.784;2022-09-03T15:49:54;21.10;99.90
6256;DHT22;3161;48.794;9.784;2022-09-03T15:52:30;21.10;99.90
6256;DHT22;3161;48.794;9.784;2022-09-03T15:58:17;20.90;99.90
6256;DHT22;3161;48.794;9.784;2022-09-03T16:00:57;20.90;99.90
6256;DHT22;3161;48.794;9.784;2022-09-03T16:03:52;20.90;99.90
6256;DHT22;3161;48.794;9.784;2022-09-03T16:08:58;20.90;99.90
6256;DHT22;3161;48.794;9.784;2022-09-03T16:11:38;20.80;99.90
6256;DHT22;3161;48.794;9.784;2022-09-03T16:14:17;20.80;99.90
6256;DHT22;3161;48.794;9.784;2022-09-03T16:16:51;20.70;99.90
6256;DHT22;3161;48.794;9.784;2022-09-03T16:22:25;20.70;99.90
6256;DHT22;3161;48.794;9.784;2022-09-03T16:24:58;20.60;99.90
6256;DHT22;3161;48.794;9.784;2022-09-03T16:27:31;20.60;99.90
6256;DHT22;3161;48.794;9.784;2022-09-03T16:30:01;20.50;99.90
6256;DHT22;3161;48.794;9.784;2022-09-03T16:35:35;20.40;99.90
6256;DHT22;3161;48.794;9.784;2022-09-03T16:41:01;20.40;99.90
6256;DHT22;3161;48.794;9.784;2022-09-03T16:51:54;20.20;99.90
6256;DHT22;3161;48.794;9.784;2022-09-03T16:54:36;20.20;99.90
6256;DHT22;3161;48.794;9.784;2022-09-03T17:00:09;20.20;99.90
6256;DHT22;3161;48.794;9.784;2022-09-03T17:11:14;20.00;99.90
6256;DHT22;3161;48.794;9.784;2022-09-03T17:24:54;19.90;99.90
6256;DHT22;3161;48.794;9.784;2022-09-03T17:27:58;19.10;99.90
6256;DHT22;3161;48.794;9.784;2022-09-03T17:36:27;19.70;99.90
6256;DHT22;3161;48.794;9.784;2022-09-03T17:41:49;19.60;99.90
6256;DHT22;3161;48.794;9.784;2022-09-03T17:50:19;19.50;99.90
6256;DHT22;3161;48.794;9.784;2022-09-03T17:52:49;19.40;99.90
6256;DHT22;3161;48.794;9.784;2022-09-03T17:55:28;19.40;99.90
6256;DHT22;3161;48.794;9.784;2022-09-03T17:58:07;19.30;99.90
6256;DHT22;3161;48.794;9.784;2022-09-03T18:03:30;19.30;99.90
6256;DHT22;3161;48.794;9.784;2022-09-03T18:06:17;19.30;99.90
6256;DHT22;3161;48.794;9.784;2022-09-03T18:08:51;19.30;99.90
6256;DHT22;3161;48.794;9.784;2022-09-03T18:11:21;19.20;99.90
6256;DHT22;3161;48.794;9.784;2022-09-03T18:16:34;19.10;99.90
6256;DHT22;3161;48.794;9.784;2022-09-03T18:19:22;19.10;99.90
6256;DHT22;3161;48.794;9.784;2022-09-03T18:21:49;19.00;99.90
6256;DHT22;3161;48.794;9.784;2022-09-03T18:24:44;19.00;99.90
6256;DHT22;3161;48.794;9.784;2022-09-03T18:27:42;19.00;99.90
6256;DHT22;3161;48.794;9.784;2022-09-03T18:30:25;19.00;99.90
6256;DHT22;3161;48.794;9.784;2022-09-03T18:33:10;19.00;99.90
6256;DHT22;3161;48.794;9.784;2022-09-03T18:35:58;18.90;99.90
6256;DHT22;3161;48.794;9.784;2022-09-03T18:38:43;18.90;99.90
6256;DHT22;3161;48.794;9.784;2022-09-03T18:44:50;18.90;99.90
6256;DHT22;3161;48.794;9.784;2022-09-03T19:02:28;18.80;99.90
6256;DHT22;3161;48.794;9.784;2022-09-03T19:05:18;18.70;99.90
6256;DHT22;3161;48.794;9.784;2022-09-03T19:08:18;18.70;99.90
6256;DHT22;3161;48.794;9.784;2022-09-03T19:11:07;18.70;99.90
6256;DHT22;3161;48.794;9.784;2022-09-03T19:13:51;18.70;99.90
6256;DHT22;3161;48.794;9.784;2022-09-03T19:22:31;18.60;99.90
6256;DHT22;3161;48.794;9.784;2022-09-03T19:25:14;18.60;99.90
6256;DHT22;3161;48.794;9.784;2022-09-03T19:28:20;18.60;99.90
6256;DHT22;3161;48.794;9.784;2022-09-03T19:37:26;18.50;99.90
6256;DHT22;3161;48.794;9.784;2022-09-03T19:43:26;18.40;99.90
6256;DHT22;3161;48.794;9.784;2022-09-03T19:55:46;18.30;99.90
6256;DHT22;3161;48.794;9.784;2022-09-03T19:58:33;18.20;99.90
6256;DHT22;3161;48.794;9.784;2022-09-03T20:01:20;18.20;99.90
6256;DHT22;3161;48.794;9.784;2022-09-03T20:04:11;18.20;99.90
6256;DHT22;3161;48.794;9.784;2022-09-03T20:06:59;18.10;99.90
6256;DHT22;3161;48.794;9.784;2022-09-03T20:09:46;18.10;99.90
6256;DHT22;3161;48.794;9.784;2022-09-03T20:12:36;18.00;99.90
6256;DHT22;3161;48.794;9.784;2022-09-03T20:15:04;18.00;99.90
6256;DHT22;3161;48.794;9.784;2022-09-03T20:17:49;18.00;99.90
6256;DHT22;3161;48.794;9.784;2022-09-03T20:20:25;18.00;99.90
6256;DHT22;3161;48.794;9.784;2022-09-03T20:23:03;17.90;99.90
6256;DHT22;3161;48.794;9.784;2022-09-03T20:26:00;17.90;99.90
6256;DHT22;3161;48.794;9.784;2022-09-03T20:33:43;17.90;99.90
6256;DHT22;3161;48.794;9.784;2022-09-03T20:44:32;17.90;99.90
6256;DHT22;3161;48.794;9.784;2022-09-03T20:52:47;17.90;99.90
6256;DHT22;3161;48.794;9.784;2022-09-03T20:55:22;17.90;99.90
6256;DHT22;3161;48.794;9.784;2022-09-03T21:00:42;17.80;99.90
6256;DHT22;3161;48.794;9.784;2022-09-03T21:03:23;17.90;99.90
6256;DHT22;3161;48.794;9.784;2022-09-03T21:09:14;17.90;99.90
6256;DHT22;3161;48.794;9.784;2022-09-03T21:11:51;17.80;99.90
6256;DHT22;3161;48.794;9.784;2022-09-03T21:14:38;17.80;99.90
6256;DHT22;3161;48.794;9.784;2022-09-03T21:25:24;17.80;99.90
6256;DHT22;3161;48.794;9.784;2022-09-03T21:27:58;17.80;99.90
6256;DHT22;3161;48.794;9.784;2022-09-03T21:30:27;17.80;99.90
6256;DHT22;3161;48.794;9.784;2022-09-03T21:32:58;17.80;99.90
6256;DHT22;3161;48.794;9.784;2022-09-03T21:35:38;17.80;99.90
6256;DHT22;3161;48.794;9.784;2022-09-03T21:38:17;17.80;99.90